Time;durP1;ratioP1;P1;durP2;ratioP2;P2;SDS_P1;SDS_P2;PMS_P1;PMS_P2;Temp;Humidity;BMP_temperature;BMP_pressure;BME280_temperature;BME280_humidity;BME280_pressure;Samples;Min_cycle;Max_cycle;Signal;HPM_P1;HPM_P2
2022/11/25 00:01:06;;;;;;;58.57;52.87;;;;;;;5.14;100.00;101240.44;5012435;28;20479;-48
2022/11/25 00:03:34;;;;;;;60.37;54.20;;;;;;;5.08;100.00;101254.25;5012243;28;20453;-44
2022/11/25 00:06:10;;;;;;;61.97;55.77;;;;;;;5.02;100.00;101243.25;5012567;28;20456;-51
2022/11/25 00:08:37;;;;;;;59.23;53.17;;;;;;;4.99;100.00;101245.34;5012464;28;20468;-46
2022/11/25 00:11:06;;;;;;;62.33;55.67;;;;;;;4.91;100.00;101242.63;5012258;28;20429;-45
2022/11/25 00:13:34;;;;;;;69.93;58.53;;;;;;;4.85;100.00;101235.28;5011944;28;20495;-44
2022/11/25 00:16:02;;;;;;;76.03;60.73;;;;;;;4.77;100.00;101241.34;5013035;28;20838;-51
2022/11/25 00:18:33;;;;;;;63.17;56.50;;;;;;;4.74;100.00;101254.00;5012686;28;20433;-53
2022/11/25 00:21:05;;;;;;;62.77;55.63;;;;;;;4.66;100.00;101248.63;5012259;28;20433;-48
2022/11/25 00:23:33;;;;;;;63.17;56.67;;;;;;;4.60;100.00;101238.63;5011255;28;20465;-46
2022/11/25 00:26:06;;;;;;;64.80;57.17;;;;;;;4.51;100.00;101234.22;5011861;28;20440;-46
2022/11/25 00:28:34;;;;;;;58.13;52.07;;;;;;;4.45;100.00;101227.69;5012106;28;20480;-44
2022/11/25 00:31:06;;;;;;;65.53;56.10;;;;;;;4.42;100.00;101234.09;5003673;28;20438;-45
2022/11/25 00:33:36;;;;;;;61.87;55.43;;;;;;;4.37;100.00;101246.91;4992113;28;20469;-45
2022/11/25 00:36:05;;;;;;;61.90;55.40;;;;;;;4.34;100.00;101239.28;4992546;28;20434;-46
2022/11/25 00:38:32;;;;;;;62.13;55.83;;;;;;;4.31;100.00;101241.38;4992406;28;20997;-45
2022/11/25 00:46:30;;;;;;;63.33;56.40;;;;;;;4.25;100.00;101239.31;4992374;28;20440;-45
2022/11/25 00:48:59;;;;;;;61.87;55.47;;;;;;;4.20;100.00;101236.28;4992194;28;20843;-49
2022/11/25 00:51:26;;;;;;;69.43;56.83;;;;;;;4.17;100.00;101237.41;4991915;28;21006;-46
2022/11/25 00:53:54;;;;;;;68.73;57.30;;;;;;;4.08;100.00;101230.34;5002613;28;20807;-47
2022/11/25 00:56:25;;;;;;;60.87;55.03;;;;;;;4.01;100.00;101233.66;5011853;28;20429;-46
2022/11/25 00:58:53;;;;;;;59.80;53.43;;;;;;;3.98;100.00;101228.69;5011863;28;20460;-50
2022/11/25 01:01:21;;;;;;;65.30;54.90;;;;;;;3.98;100.00;101226.03;5011267;28;21009;-48
2022/11/25 01:03:49;;;;;;;62.07;55.10;;;;;;;3.99;100.00;101231.19;5011208;28;20527;-44
2022/11/25 01:06:19;;;;;;;68.10;54.80;;;;;;;4.00;100.00;101229.38;5011792;28;20483;-46
2022/11/25 01:08:46;;;;;;;61.77;54.53;;;;;;;3.99;100.00;101233.81;5011869;28;20534;-45
2022/11/25 01:11:17;;;;;;;67.03;58.93;;;;;;;4.00;100.00;101234.66;5011471;28;20460;-45
2022/11/25 01:13:45;;;;;;;66.43;59.47;;;;;;;3.97;100.00;101230.50;5011283;28;20464;-45
2022/11/25 01:16:14;;;;;;;65.77;58.10;;;;;;;3.98;100.00;101231.31;5011585;28;20452;-46
2022/11/25 01:18:42;;;;;;;67.63;57.20;;;;;;;4.01;100.00;101236.31;5011869;28;20444;-51
2022/11/25 01:21:12;;;;;;;70.10;59.33;;;;;;;4.02;100.00;101233.53;5011470;28;20444;-45
2022/11/25 01:23:41;;;;;;;64.57;57.10;;;;;;;4.02;100.00;101222.16;5011130;28;20465;-46
2022/11/25 01:26:13;;;;;;;67.80;60.50;;;;;;;4.02;100.00;101223.00;5011532;28;20487;-44
2022/11/25 01:28:41;;;;;;;77.50;60.43;;;;;;;4.02;100.00;101225.63;5011475;28;20480;-45
2022/11/25 01:31:11;;;;;;;85.47;60.60;;;;;;;4.03;100.00;101216.75;5011427;28;20477;-45
2022/11/25 01:33:39;;;;;;;76.67;60.63;;;;;;;4.02;100.00;101211.59;5011171;28;20548;-45
2022/11/25 01:36:09;;;;;;;80.03;60.27;;;;;;;4.03;100.00;101213.28;5013379;28;20441;-47
2022/11/25 01:38:37;;;;;;;72.03;61.83;;;;;;;4.05;100.00;101219.22;5015253;28;20930;-48
2022/11/25 01:41:08;;;;;;;62.07;55.60;;;;;;;4.03;100.00;101221.19;5014781;28;20441;-45
2022/11/25 01:43:36;;;;;;;73.33;60.53;;;;;;;4.02;100.00;101224.78;5014781;28;21002;-45
2022/11/25 01:46:08;;;;;;;81.83;60.43;;;;;;;3.99;100.00;101225.06;5015362;28;20433;-44
2022/11/25 01:48:41;;;;;;;70.53;58.10;;;;;;;3.99;100.00;101219.78;5015241;28;20509;-49
2022/11/25 01:51:20;;;;;;;85.40;63.10;;;;;;;4.00;100.00;101218.84;5014882;28;20768;-47
2022/11/25 01:53:48;;;;;;;83.73;61.90;;;;;;;4.00;100.00;101221.47;5003912;28;20457;-46
2022/11/25 01:56:19;;;;;;;78.10;64.03;;;;;;;4.01;100.00;101216.03;5015107;28;20432;-45
2022/11/25 01:58:49;;;;;;;101.17;64.47;;;;;;;4.01;100.00;101213.41;5015095;28;20807;-47
2022/11/25 02:01:17;;;;;;;83.63;65.87;;;;;;;4.03;100.00;101211.47;5014587;28;20531;-49
2022/11/25 02:03:48;;;;;;;100.43;67.27;;;;;;;4.05;100.00;101221.88;5014339;28;20461;-49
2022/11/25 02:06:22;;;;;;;89.07;65.90;;;;;;;4.06;100.00;101221.72;5015101;28;20494;-44
2022/11/25 02:08:53;;;;;;;88.93;67.13;;;;;;;4.08;100.00;101211.03;5014947;28;20519;-46
2022/11/25 02:11:25;;;;;;;85.67;62.93;;;;;;;4.10;100.00;101219.63;5014516;28;20445;-48
2022/11/25 02:13:53;;;;;;;111.50;65.83;;;;;;;4.12;100.00;101218.50;5014149;28;20468;-45
2022/11/25 02:16:21;;;;;;;95.53;64.10;;;;;;;4.14;100.00;101218.38;5014636;28;20437;-49
2022/11/25 02:18:49;;;;;;;108.53;68.07;;;;;;;4.14;100.00;101216.56;5014623;28;20429;-46
2022/11/25 02:21:22;;;;;;;97.93;64.47;;;;;;;4.17;100.00;101218.91;5014168;28;20962;-49
2022/11/25 02:23:56;;;;;;;110.33;68.63;;;;;;;4.19;100.00;101213.47;5014102;28;20834;-48
2022/11/25 02:26:25;;;;;;;110.23;65.87;;;;;;;4.20;100.00;101209.88;5014421;28;20428;-50
2022/11/25 02:28:53;;;;;;;90.20;65.97;;;;;;;4.21;100.00;101219.47;5014283;28;20473;-49
2022/11/25 02:31:22;;;;;;;84.30;65.20;;;;;;;4.21;100.00;101214.19;5014276;28;20507;-46
2022/11/25 02:33:50;;;;;;;88.53;64.33;;;;;;;4.18;100.00;101214.47;5013896;28;20461;-46
2022/11/25 02:36:21;;;;;;;77.10;60.80;;;;;;;4.18;100.00;101220.56;5014292;28;20424;-48
2022/11/25 02:38:52;;;;;;;86.47;64.53;;;;;;;4.16;100.00;101221.69;5014399;28;20839;-47
2022/11/25 02:41:25;;;;;;;76.93;61.43;;;;;;;4.14;100.00;101218.38;5013864;28;20445;-46
2022/11/25 02:43:54;;;;;;;79.13;62.57;;;;;;;4.13;100.00;101221.97;5013615;28;20468;-46
2022/11/25 02:46:25;;;;;;;87.10;60.67;;;;;;;4.11;100.00;101218.66;5013919;28;20429;-47
2022/11/25 02:48:54;;;;;;;71.63;59.83;;;;;;;4.08;100.00;101225.06;5013301;28;20986;-47
2022/11/25 02:51:39;;;;;;;79.93;60.50;;;;;;;4.05;100.00;101230.63;5011045;28;20457;-44
2022/11/25 02:54:07;;;;;;;68.17;59.77;;;;;;;4.05;100.00;101235.91;4998399;28;20855;-48
2022/11/25 02:56:36;;;;;;;83.20;62.83;;;;;;;4.01;100.00;101223.94;4993018;28;20438;-51
2022/11/25 02:59:05;;;;;;;73.17;59.50;;;;;;;3.99;100.00;101228.56;4995065;28;20835;-48
2022/11/25 03:01:33;;;;;;;85.90;58.57;;;;;;;3.94;100.00;101230.78;4994403;28;20461;-48
2022/11/25 03:04:01;;;;;;;67.37;57.80;;;;;;;3.89;100.00;101222.44;4994658;28;20464;-48
2022/11/25 03:06:30;;;;;;;75.20;60.73;;;;;;;3.85;100.00;101227.16;4994735;28;20434;-51
2022/11/25 03:08:58;;;;;;;79.70;56.90;;;;;;;3.79;100.00;101233.00;5000927;28;20478;-49
2022/11/25 03:12:17;;;;;;;69.57;59.03;;;;;;;3.74;100.00;101232.59;5009110;28;20452;-49
2022/11/25 03:14:15;;;;;;;67.10;59.30;;;;;;;3.69;100.00;101234.00;5013376;28;20440;-49
2022/11/25 03:16:43;;;;;;;59.87;54.00;;;;;;;3.64;100.00;101231.81;5013435;28;20951;-48
2022/11/25 03:19:11;;;;;;;66.50;55.37;;;;;;;3.64;100.00;101230.97;5013331;28;20428;-50
2022/11/25 03:21:38;;;;;;;64.80;53.67;;;;;;;3.64;100.00;101225.69;5013287;28;20449;-50
2022/11/25 03:24:07;;;;;;;68.67;56.10;;;;;;;3.64;100.00;101236.25;5013139;28;20447;-51
2022/11/25 03:26:34;;;;;;;68.83;57.07;;;;;;;3.63;100.00;101230.13;5013442;28;20429;-50
2022/11/25 03:29:02;;;;;;;69.57;56.17;;;;;;;3.64;100.00;101225.69;5013234;28;20477;-48
2022/11/25 03:31:31;;;;;;;68.00;56.37;;;;;;;3.65;100.00;101225.53;5012869;28;20464;-50
2022/11/25 03:33:59;;;;;;;75.00;56.43;;;;;;;3.65;100.00;101209.72;5012740;28;20469;-50
2022/11/25 03:36:26;;;;;;;73.27;57.17;;;;;;;3.66;100.00;101218.47;5013295;28;20435;-50
2022/11/25 03:38:54;;;;;;;72.17;59.20;;;;;;;3.67;100.00;101210.44;5013168;28;20433;-48
2022/11/25 03:41:21;;;;;;;65.97;58.77;;;;;;;3.69;100.00;101220.81;5012716;28;20460;-48
2022/11/25 03:43:49;;;;;;;75.33;58.73;;;;;;;3.70;100.00;101218.03;5012379;28;20473;-52
2022/11/25 03:46:17;;;;;;;68.43;56.87;;;;;;;3.70;100.00;101219.84;5012945;28;20433;-49
2022/11/25 03:48:46;;;;;;;58.63;52.53;;;;;;;3.68;100.00;101227.91;5013056;28;20804;-49
2022/11/25 03:51:14;;;;;;;61.70;55.10;;;;;;;3.68;100.00;101234.97;5012453;28;20433;-49
2022/11/25 03:53:41;;;;;;;69.10;57.57;;;;;;;3.67;100.00;101226.25;5001845;28;20841;-46
2022/11/25 03:56:09;;;;;;;74.87;57.63;;;;;;;3.67;100.00;101228.06;5012782;28;20441;-51
2022/11/25 03:58:37;;;;;;;67.67;55.27;;;;;;;3.67;100.00;101233.31;4992684;28;20500;-48
2022/11/25 04:01:04;;;;;;;79.80;57.83;;;;;;;3.66;100.00;101232.50;4991899;28;20434;-48
2022/11/25 04:03:32;;;;;;;62.50;55.80;;;;;;;3.65;100.00;101237.88;4992490;28;20469;-49
2022/11/25 04:06:01;;;;;;;70.60;57.37;;;;;;;3.63;100.00;101240.69;4992936;28;20824;-51
2022/11/25 04:08:29;;;;;;;80.97;58.47;;;;;;;3.63;100.00;101240.69;5000826;28;20811;-50
2022/11/25 04:10:56;;;;;;;69.90;59.57;;;;;;;3.62;100.00;101241.63;5004044;28;20469;-49
2022/11/25 04:13:23;;;;;;;61.67;54.20;;;;;;;3.62;100.00;101236.38;5011972;28;20504;-48
2022/11/25 04:15:51;;;;;;;64.03;55.57;;;;;;;3.62;100.00;101246.06;5012629;28;20425;-48
2022/11/25 04:18:19;;;;;;;64.73;56.27;;;;;;;3.63;100.00;101234.56;5012528;28;20441;-50
2022/11/25 04:20:47;;;;;;;63.07;53.80;;;;;;;3.63;100.00;101230.13;5012240;28;20426;-47
2022/11/25 04:23:16;;;;;;;63.40;55.10;;;;;;;3.66;100.00;101239.56;5011804;28;20523;-50
2022/11/25 04:25:43;;;;;;;65.53;58.53;;;;;;;3.66;100.00;101229.00;5012204;28;20452;-52
2022/11/25 04:28:11;;;;;;;69.87;56.47;;;;;;;3.67;100.00;101222.78;5012198;28;20437;-50
2022/11/25 04:30:39;;;;;;;63.27;56.80;;;;;;;3.68;100.00;101227.06;5012162;28;20527;-46
2022/11/25 04:33:07;;;;;;;66.93;56.27;;;;;;;3.68;100.00;101227.91;5011625;28;20480;-50
2022/11/25 04:35:34;;;;;;;65.83;57.03;;;;;;;3.68;100.00;101216.50;5012147;28;20440;-49
2022/11/25 04:38:02;;;;;;;68.10;54.10;;;;;;;3.68;100.00;101219.97;5012044;28;20433;-48
2022/11/25 04:40:31;;;;;;;83.53;59.00;;;;;;;3.68;100.00;101219.16;5012136;28;20947;-48
2022/11/25 04:42:58;;;;;;;68.43;56.87;;;;;;;3.67;100.00;101210.44;5011438;28;20495;-49
2022/11/25 04:45:34;;;;;;;73.00;56.53;;;;;;;3.67;100.00;101214.88;5011999;28;20532;-50
2022/11/25 04:48:21;;;;;;;65.40;55.40;;;;;;;3.66;100.00;101207.91;5012143;28;20440;-49
2022/11/25 04:50:49;;;;;;;71.27;55.73;;;;;;;3.66;100.00;101213.19;5011644;28;20531;-50
2022/11/25 04:53:16;;;;;;;59.70;53.47;;;;;;;3.62;100.00;101220.53;5002559;28;20470;-49
2022/11/25 04:55:45;;;;;;;61.90;55.30;;;;;;;3.63;100.00;101221.38;5010288;28;20479;-48
2022/11/25 04:59:38;;;;;;;66.13;55.30;;;;;;;3.64;100.00;101220.41;5012015;28;20436;-48
2022/11/25 05:01:00;;;;;;;59.93;53.70;;;;;;;3.65;100.00;101211.50;5011341;28;20443;-50
2022/11/25 05:03:28;;;;;;;63.17;55.80;;;;;;;3.65;100.00;101212.34;5011498;28;20465;-48
2022/11/25 05:05:56;;;;;;;60.73;53.67;;;;;;;3.66;100.00;101221.09;5011771;28;20965;-49
2022/11/25 05:08:23;;;;;;;60.70;54.27;;;;;;;3.65;100.00;101211.50;5011966;28;20436;-53
2022/11/25 05:10:52;;;;;;;66.30;53.80;;;;;;;3.67;100.00;101220.97;5013395;28;20476;-48
2022/11/25 05:13:20;;;;;;;60.00;53.53;;;;;;;3.66;100.00;101214.03;5015427;28;20981;-47
2022/11/25 05:15:47;;;;;;;64.00;54.30;;;;;;;3.67;100.00;101213.06;5015703;28;20433;-49
2022/11/25 05:18:15;;;;;;;61.73;55.37;;;;;;;3.69;100.00;101210.28;5015697;28;20938;-46
2022/11/25 05:20:44;;;;;;;62.80;56.00;;;;;;;3.70;100.00;101217.22;5015777;28;20428;-45
2022/11/25 05:23:11;;;;;;;64.23;57.50;;;;;;;3.71;100.00;101211.78;5015150;28;20917;-46
2022/11/25 05:25:39;;;;;;;60.13;53.50;;;;;;;3.72;100.00;101213.47;5015587;28;20491;-48
2022/11/25 05:28:08;;;;;;;63.13;55.50;;;;;;;3.75;100.00;101213.19;5015427;28;20443;-48
2022/11/25 05:30:35;;;;;;;61.53;54.87;;;;;;;3.74;100.00;101214.16;5015371;28;20993;-48
2022/11/25 05:33:03;;;;;;;60.97;54.67;;;;;;;3.76;100.00;101214.03;5014830;28;20460;-48
2022/11/25 05:35:31;;;;;;;64.97;55.70;;;;;;;3.77;100.00;101213.88;5015455;28;20444;-48
2022/11/25 05:38:02;;;;;;;59.40;53.60;;;;;;;3.78;100.00;101219.97;5015427;28;20436;-48
2022/11/25 05:40:31;;;;;;;59.93;54.27;;;;;;;3.79;100.00;101213.75;5015293;28;20874;-47
2022/11/25 05:43:00;;;;;;;59.77;53.67;;;;;;;3.78;100.00;101215.53;5014803;28;20553;-46
2022/11/25 05:45:29;;;;;;;61.47;55.07;;;;;;;3.80;100.00;101224.13;5015519;28;20436;-48
2022/11/25 05:47:57;;;;;;;59.77;53.40;;;;;;;3.82;100.00;101218.72;5015310;28;20495;-48
2022/11/25 05:50:24;;;;;;;61.30;55.10;;;;;;;3.85;100.00;101223.72;5014963;28;21006;-49
2022/11/25 05:52:52;;;;;;;59.13;53.57;;;;;;;3.86;100.00;101223.56;5009014;28;20484;-49
2022/11/25 05:55:19;;;;;;;55.10;49.90;;;;;;;3.90;100.00;101230.25;5009881;28;20528;-47
2022/11/25 05:57:47;;;;;;;65.43;56.00;;;;;;;3.95;100.00;101237.72;5015025;28;20441;-47
2022/11/25 06:00:15;;;;;;;57.03;51.80;;;;;;;4.00;100.00;101248.69;5014952;28;20957;-46
2022/11/25 06:02:44;;;;;;;59.97;53.97;;;;;;;4.05;100.00;101259.66;5014055;28;20468;-46
2022/11/25 06:05:12;;;;;;;61.80;55.77;;;;;;;4.08;100.00;101251.44;5014874;28;20428;-50
2022/11/25 06:07:39;;;;;;;55.33;50.47;;;;;;;4.14;100.00;101250.03;5014757;28;20487;-47
2022/11/25 06:10:08;;;;;;;56.80;51.60;;;;;;;4.18;100.00;101246.97;5014716;28;20974;-47
2022/11/25 06:12:36;;;;;;;57.50;52.07;;;;;;;4.24;100.00;101248.22;5013857;28;20990;-47
2022/11/25 06:15:04;;;;;;;58.57;52.93;;;;;;;4.27;100.00;101251.38;5014720;28;20487;-50
2022/11/25 06:17:32;;;;;;;56.20;51.27;;;;;;;4.33;100.00;101256.09;5015155;28;20444;-47
2022/11/25 06:20:01;;;;;;;59.00;52.90;;;;;;;4.37;100.00;101249.56;5014553;28;20487;-48
2022/11/25 06:22:28;;;;;;;56.80;51.50;;;;;;;4.39;100.00;101250.22;4996386;28;20461;-49
2022/11/25 06:24:56;;;;;;;57.50;52.60;;;;;;;4.42;100.00;101249.94;4995475;28;20436;-49
2022/11/25 06:27:30;;;;;;;55.20;50.17;;;;;;;4.43;100.00;101253.41;5002858;28;20956;-46
2022/11/25 06:30:18;;;;;;;57.23;51.30;;;;;;;4.44;100.00;101250.66;4975479;28;20474;-45
2022/11/25 06:32:46;;;;;;;54.40;49.90;;;;;;;4.46;100.00;101250.50;4974699;28;20509;-46
2022/11/25 06:35:15;;;;;;;52.97;48.53;;;;;;;4.48;100.00;101252.00;4975528;28;20861;-46
2022/11/25 06:37:43;;;;;;;54.73;50.30;;;;;;;4.51;100.00;101260.63;4975405;28;20812;-50
2022/11/25 06:40:11;;;;;;;53.93;49.27;;;;;;;4.53;100.00;101262.16;4975371;28;20438;-48
2022/11/25 06:42:42;;;;;;;53.97;49.10;;;;;;;4.55;100.00;101252.25;4974445;28;20545;-52
2022/11/25 06:45:10;;;;;;;53.40;48.90;;;;;;;4.58;100.00;101249.34;4975092;28;20422;-50
2022/11/25 06:47:38;;;;;;;55.50;50.33;;;;;;;4.60;100.00;101251.84;4975253;28;21007;-50
2022/11/25 06:50:07;;;;;;;51.60;47.20;;;;;;;4.60;100.00;101251.84;4975306;28;20439;-50
2022/11/25 06:52:36;;;;;;;54.00;48.90;;;;;;;4.64;100.00;101250.56;4988241;28;20902;-47
2022/11/25 06:55:04;;;;;;;55.07;49.87;;;;;;;4.64;100.00;101259.31;4997326;28;20429;-47
2022/11/25 06:57:32;;;;;;;53.17;49.17;;;;;;;4.68;100.00;101258.06;4996165;28;20441;-49
2022/11/25 06:59:59;;;;;;;54.60;49.70;;;;;;;4.69;100.00;101259.69;4994690;28;20421;-49
2022/11/25 07:02:27;;;;;;;52.77;48.67;;;;;;;4.72;100.00;101251.47;4995545;28;20474;-48
2022/11/25 07:04:55;;;;;;;51.93;47.20;;;;;;;4.76;100.00;101252.03;5003134;28;20954;-47
2022/11/25 07:07:23;;;;;;;51.27;46.60;;;;;;;4.77;100.00;101251.91;5008877;28;20460;-48
2022/11/25 07:09:52;;;;;;;50.83;46.33;;;;;;;4.78;100.00;101245.63;5013654;28;21021;-46
2022/11/25 07:12:19;;;;;;;50.67;46.57;;;;;;;4.81;100.00;101245.31;5012777;28;20800;-48
2022/11/25 07:14:50;;;;;;;46.37;42.47;;;;;;;4.86;100.00;101240.44;5013815;28;20440;-49
2022/11/25 07:17:17;;;;;;;48.77;44.70;;;;;;;4.89;100.00;101237.50;5013670;28;20437;-50
2022/11/25 07:19:45;;;;;;;46.70;42.83;;;;;;;4.91;100.00;101237.34;5013637;28;20437;-48
2022/11/25 07:22:13;;;;;;;51.03;46.47;;;;;;;4.92;100.00;101244.31;5012676;28;20480;-48
2022/11/25 07:24:40;;;;;;;50.83;46.00;;;;;;;4.95;100.00;101228.16;5013279;28;20433;-46
2022/11/25 07:27:09;;;;;;;48.97;44.67;;;;;;;4.93;100.00;101230.09;5013263;28;20436;-47
2022/11/25 07:29:37;;;;;;;49.33;45.30;;;;;;;4.94;100.00;101224.69;5013515;28;20433;-49
2022/11/25 07:32:24;;;;;;;49.07;44.50;;;;;;;4.92;100.00;101233.75;5003625;28;20527;-45
2022/11/25 07:34:52;;;;;;;48.63;44.77;;;;;;;4.95;100.00;101244.00;4996942;28;20449;-46
2022/11/25 07:37:20;;;;;;;45.67;42.03;;;;;;;4.96;100.00;101240.38;4995581;28;20442;-47
2022/11/25 07:39:48;;;;;;;46.60;42.80;;;;;;;4.99;100.00;101248.84;5003569;28;20437;-44
2022/11/25 07:42:16;;;;;;;49.53;45.43;;;;;;;5.00;100.00;101247.88;5012466;28;20490;-48
2022/11/25 07:44:44;;;;;;;50.20;45.67;;;;;;;5.04;100.00;101248.41;5013069;28;20433;-46
2022/11/25 07:47:12;;;;;;;50.60;46.03;;;;;;;5.09;100.00;101261.16;5012812;28;21004;-44
2022/11/25 07:49:40;;;;;;;48.03;44.43;;;;;;;5.10;100.00;101258.41;5012156;28;20459;-48
2022/11/25 07:52:07;;;;;;;49.33;44.80;;;;;;;5.16;100.00;101262.25;5008931;28;20990;-45
2022/11/25 07:54:35;;;;;;;51.67;47.33;;;;;;;5.20;100.00;101266.25;5004801;28;20440;-46
2022/11/25 07:57:02;;;;;;;49.40;44.83;;;;;;;5.21;100.00;101267.91;5012749;28;20437;-45
2022/11/25 07:59:31;;;;;;;48.73;45.03;;;;;;;5.25;100.00;101272.78;5012715;28;20552;-44
2022/11/25 08:01:59;;;;;;;50.13;45.83;;;;;;;5.29;100.00;101273.28;5011815;28;20461;-44
2022/11/25 08:04:27;;;;;;;48.17;44.47;;;;;;;5.33;100.00;101275.50;5008383;28;20923;-50
2022/11/25 08:06:55;;;;;;;50.97;46.40;;;;;;;5.39;100.00;101279.34;4973674;28;20435;-48
2022/11/25 08:09:24;;;;;;;50.40;46.37;;;;;;;5.42;100.00;101274.59;4973684;28;20489;-45
2022/11/25 08:11:52;;;;;;;51.50;47.10;;;;;;;5.46;100.00;101277.78;4972906;28;20853;-44
2022/11/25 08:14:20;;;;;;;49.40;44.90;;;;;;;5.52;100.00;101282.47;4973233;28;20439;-47
2022/11/25 08:16:49;;;;;;;48.53;44.70;;;;;;;5.55;100.00;101282.97;4973250;28;20426;-47
2022/11/25 08:19:18;;;;;;;48.57;44.87;;;;;;;5.57;100.00;101275.72;4973071;28;20435;-44
2022/11/25 08:21:46;;;;;;;47.33;43.77;;;;;;;5.62;100.00;101282.38;4972897;28;20455;-45
2022/11/25 08:24:16;;;;;;;47.77;44.03;;;;;;;5.67;100.00;101280.13;4973116;28;20435;-47
2022/11/25 08:26:44;;;;;;;45.73;42.53;;;;;;;5.68;100.00;101287.88;4973192;28;20431;-45
2022/11/25 08:29:15;;;;;;;49.60;45.33;;;;;;;5.72;100.00;101280.47;4973223;28;20443;-45
2022/11/25 08:31:43;;;;;;;47.33;43.63;;;;;;;5.77;100.00;101286.97;4971858;28;20553;-47
2022/11/25 08:34:17;;;;;;;49.07;45.27;;;;;;;5.80;100.00;101284.03;4971519;28;20809;-50
2022/11/25 08:36:45;;;;;;;48.50;44.40;;;;;;;5.82;100.00;101287.38;4972966;28;20457;-45
2022/11/25 08:39:16;;;;;;;46.53;43.13;;;;;;;5.87;100.00;101282.47;4972995;28;20437;-44
2022/11/25 08:42:04;;;;;;;49.30;45.17;;;;;;;5.88;100.00;101284.16;4972554;28;20466;-45
2022/11/25 08:44:32;;;;;;;46.87;43.40;;;;;;;5.90;100.00;101287.47;4972755;28;20458;-45
2022/11/25 08:46:59;;;;;;;49.43;45.60;;;;;;;5.92;100.00;101282.84;4972603;28;20979;-44
2022/11/25 08:49:29;;;;;;;48.17;44.73;;;;;;;5.95;100.00;101285.19;4972966;28;20470;-46
2022/11/25 08:52:00;;;;;;;46.80;43.57;;;;;;;5.94;100.00;101282.69;4981838;28;20456;-44
2022/11/25 08:54:27;;;;;;;47.20;44.00;;;;;;;5.94;100.00;101283.50;5002321;28;20425;-48
2022/11/25 08:56:55;;;;;;;48.40;44.50;;;;;;;5.98;100.00;101284.03;5012150;28;20425;-45
2022/11/25 08:59:24;;;;;;;47.20;43.20;;;;;;;6.00;100.00;101292.69;5012034;28;20503;-44
2022/11/25 09:01:51;;;;;;;48.30;44.50;;;;;;;6.02;100.00;101277.47;5010842;28;20456;-49
2022/11/25 09:04:19;;;;;;;49.57;45.70;;;;;;;6.03;100.00;101290.53;5011989;28;20437;-44
2022/11/25 09:06:48;;;;;;;51.50;47.03;;;;;;;6.05;100.00;101288.56;5011745;28;20487;-44
2022/11/25 09:09:16;;;;;;;50.93;46.77;;;;;;;6.10;100.00;101290.75;5012022;28;20787;-46
2022/11/25 09:11:43;;;;;;;48.17;44.67;;;;;;;6.12;100.00;101291.44;5011109;28;20476;-43
2022/11/25 09:14:11;;;;;;;50.97;47.13;;;;;;;6.18;100.00;101288.19;5011733;28;20527;-46
2022/11/25 09:16:39;;;;;;;50.30;46.30;;;;;;;6.20;100.00;101290.66;5011733;28;20441;-44
2022/11/25 09:19:06;;;;;;;47.43;43.90;;;;;;;6.20;100.00;101294.16;5012159;28;20520;-44
2022/11/25 09:21:34;;;;;;;48.17;44.57;;;;;;;6.20;100.00;101293.31;5011329;28;20985;-47
2022/11/25 09:24:03;;;;;;;49.07;45.20;;;;;;;6.25;100.00;101306.91;5011184;28;20460;-44
2022/11/25 09:26:34;;;;;;;49.77;46.07;;;;;;;6.25;100.00;101312.22;5011797;28;20540;-44
2022/11/25 09:29:02;;;;;;;50.90;47.00;;;;;;;6.21;100.00;101309.06;5011936;28;20524;-45
2022/11/25 09:31:30;;;;;;;50.27;46.23;;;;;;;6.25;100.00;101313.03;5010651;28;20449;-44
2022/11/25 09:33:57;;;;;;;49.50;45.63;;;;;;;6.26;100.00;101313.88;5010887;28;20548;-46
2022/11/25 09:36:25;;;;;;;50.30;46.63;;;;;;;6.22;100.00;101316.00;5011716;28;20436;-45
2022/11/25 09:38:53;;;;;;;49.10;45.70;;;;;;;6.17;100.00;101315.63;5011422;28;20448;-44
2022/11/25 09:47:34;;;;;;;47.53;43.53;;;;;;;6.05;100.00;101323.00;4956037;28;20489;-45
2022/11/25 09:50:13;;;;;;;49.40;45.10;;;;;;;6.05;100.00;101316.88;5011343;28;20429;-43
2022/11/25 09:52:48;;;;;;;48.57;44.87;;;;;;;6.03;100.00;101317.00;5006384;28;20473;-46
2022/11/25 09:55:18;;;;;;;50.37;46.77;;;;;;;6.02;100.00;101325.13;5005813;28;20429;-45
2022/11/25 09:57:58;;;;;;;52.40;48.00;;;;;;;5.97;100.00;101335.34;5014585;28;20429;-45
2022/11/25 10:00:32;;;;;;;46.97;43.63;;;;;;;5.95;100.00;101338.13;5015220;28;20432;-46
2022/11/25 10:03:04;;;;;;;49.00;45.40;;;;;;;5.93;100.00;101337.47;5014133;28;20472;-45
2022/11/25 10:05:37;;;;;;;50.17;46.10;;;;;;;5.93;100.00;101339.25;5015232;28;20760;-45
2022/11/25 10:08:12;;;;;;;49.43;45.83;;;;;;;5.97;100.00;101344.09;5015098;28;20440;-45
2022/11/25 10:10:44;;;;;;;48.87;44.77;;;;;;;5.98;100.00;101345.75;5014723;28;20972;-46
2022/11/25 10:13:19;;;;;;;46.33;42.83;;;;;;;5.96;100.00;101345.09;5014309;28;20555;-46
2022/11/25 10:15:50;;;;;;;50.47;46.43;;;;;;;5.98;100.00;101340.47;5014902;28;20428;-44
2022/11/25 10:18:23;;;;;;;49.80;45.87;;;;;;;6.00;100.00;101346.44;5014911;28;20472;-46
2022/11/25 10:20:52;;;;;;;50.00;45.90;;;;;;;5.99;100.00;101343.94;5014721;28;20509;-43
2022/11/25 10:23:24;;;;;;;48.03;44.67;;;;;;;6.05;100.00;101338.03;5014042;28;20476;-48
2022/11/25 10:25:59;;;;;;;48.80;44.50;;;;;;;6.08;100.00;101335.94;5014485;28;20468;-45
2022/11/25 10:28:32;;;;;;;47.67;44.07;;;;;;;6.06;100.00;101351.13;5014748;28;20441;-45
2022/11/25 10:31:04;;;;;;;48.60;44.70;;;;;;;6.09;100.00;101336.78;5014364;28;20480;-43
2022/11/25 10:33:35;;;;;;;48.53;44.60;;;;;;;6.12;100.00;101341.75;5013956;28;20473;-48
2022/11/25 10:36:10;;;;;;;47.27;43.70;;;;;;;6.16;100.00;101344.91;5014383;28;20425;-44
2022/11/25 10:38:42;;;;;;;48.57;44.13;;;;;;;6.20;100.00;101344.47;5014288;28;20440;-43
2022/11/25 10:41:15;;;;;;;46.50;42.97;;;;;;;6.24;100.00;101355.59;5014267;28;20774;-45
2022/11/25 10:43:46;;;;;;;46.47;42.67;;;;;;;6.27;100.00;101348.16;5013802;28;20468;-46
2022/11/25 10:46:28;;;;;;;46.33;42.73;;;;;;;6.28;100.00;101348.97;5014285;28;20436;-44
2022/11/25 10:49:26;;;;;;;47.57;43.63;;;;;;;6.31;100.00;101353.97;5014355;28;20468;-46
2022/11/25 10:51:56;;;;;;;46.77;43.10;;;;;;;6.34;100.00;101357.16;5010620;28;20471;-47
2022/11/25 10:54:26;;;;;;;47.37;43.60;;;;;;;6.40;100.00;101353.03;5005932;28;20484;-44
2022/11/25 10:57:18;;;;;;;47.30;43.50;;;;;;;6.46;100.00;101355.06;5013940;28;20433;-44
2022/11/25 10:59:55;;;;;;;48.77;45.13;;;;;;;6.50;100.00;101359.09;5014174;28;20760;-44
2022/11/25 11:02:25;;;;;;;47.17;43.87;;;;;;;6.53;100.00;101364.06;5013161;28;20507;-45
2022/11/25 11:04:59;;;;;;;47.37;44.07;;;;;;;6.56;100.00;101354.00;5013960;28;20795;-44
2022/11/25 11:07:31;;;;;;;49.60;45.43;;;;;;;6.60;100.00;101360.63;5013488;28;20437;-49
2022/11/25 11:10:17;;;;;;;50.33;46.53;;;;;;;6.66;100.00;101359.19;5013750;28;20439;-44
2022/11/25 11:12:54;;;;;;;49.20;45.33;;;;;;;6.70;100.00;101357.88;5012961;28;20476;-43
2022/11/25 11:15:25;;;;;;;55.70;49.90;;;;;;;6.71;100.00;101356.91;5013614;28;20460;-43
2022/11/25 11:17:54;;;;;;;50.47;46.63;;;;;;;6.74;100.00;101359.25;5013763;28;20441;-45
2022/11/25 11:20:24;;;;;;;53.23;48.73;;;;;;;6.77;100.00;101360.75;5013711;28;20943;-48
2022/11/25 11:22:57;;;;;;;49.90;45.93;;;;;;;6.80;100.00;101363.09;5012903;28;20467;-48
2022/11/25 11:25:32;;;;;;;48.67;45.23;;;;;;;6.80;100.00;101365.75;5013550;28;20438;-44
2022/11/25 11:28:02;;;;;;;47.80;44.23;;;;;;;6.85;100.00;101376.69;5000497;28;20442;-44
2022/11/25 11:30:32;;;;;;;47.70;43.90;;;;;;;6.86;100.00;101375.72;4974150;28;20443;-45
2022/11/25 11:33:04;;;;;;;48.70;44.87;;;;;;;6.89;100.00;101368.28;4972488;28;20482;-43